createdAt,value
2022-08-07T00:00:05.844Z,44.45
2022-08-07T00:01:44.186Z,44.89
2022-08-07T00:02:41.607Z,44.91
2022-08-07T00:03:47.378Z,45.05
2022-08-07T00:04:49.169Z,44.84
2022-08-07T00:05:50.694Z,45.00
2022-08-07T00:06:52.471Z,44.65
2022-08-07T00:07:59.638Z,45.03
2022-08-07T00:09:16.350Z,45.31
2022-08-07T00:10:25.896Z,45.17
2022-08-07T00:11:30.066Z,45.13
2022-08-07T00:12:34.933Z,45.40
2022-08-07T00:13:56.791Z,45.29
2022-08-07T00:14:58.834Z,45.49
2022-08-07T00:16:00.420Z,45.74
2022-08-07T00:17:03.947Z,45.66
2022-08-07T00:18:08.157Z,45.61
2022-08-07T00:19:21.510Z,45.11
2022-08-07T00:20:29.825Z,45.42
2022-08-07T00:21:56.729Z,45.21
2022-08-07T00:22:57.383Z,45.86
2022-08-07T00:24:00.568Z,45.90
2022-08-07T00:25:04.875Z,45.92
2022-08-07T00:26:18.559Z,45.60
2022-08-07T00:27:51.668Z,45.72
2022-08-07T00:28:56.846Z,45.67
2022-08-07T00:29:58.745Z,45.83
2022-08-07T00:31:06.432Z,45.90
2022-08-07T00:32:15.113Z,45.78
2022-08-07T00:33:17.305Z,45.82
2022-08-07T00:34:19.191Z,45.95
2022-08-07T00:35:23.411Z,45.87
2022-08-07T00:36:25.550Z,45.86
2022-08-07T00:37:30.594Z,46.28
2022-08-07T00:38:50.485Z,46.28
2022-08-07T00:39:54.227Z,46.42
2022-08-07T00:40:56.417Z,46.12
2022-08-07T00:42:01.665Z,46.41
2022-08-07T00:43:04.801Z,46.55
2022-08-07T00:44:11.678Z,46.52
2022-08-07T00:45:16.670Z,46.55
2022-08-07T00:46:19.952Z,46.66
2022-08-07T00:48:07.583Z,46.63
2022-08-07T00:48:45.555Z,46.57
2022-08-07T00:50:21.132Z,46.28
2022-08-07T00:51:14.250Z,46.39
2022-08-07T00:52:19.905Z,46.43
2022-08-07T00:53:21.957Z,46.33
2022-08-07T00:54:23.582Z,46.37
2022-08-07T00:56:02.683Z,46.23
2022-08-07T00:56:49.908Z,46.64
2022-08-07T00:57:55.185Z,46.84
2022-08-07T00:58:58.559Z,46.96
2022-08-07T01:00:00.177Z,46.86
2022-08-07T01:01:02.063Z,46.89
2022-08-07T01:02:14.093Z,47.18
2022-08-07T01:03:55.358Z,47.02
2022-08-07T01:04:51.654Z,46.95
2022-08-07T01:05:56.510Z,47.09
2022-08-07T01:06:58.116Z,47.17
2022-08-07T01:07:59.622Z,47.14
2022-08-07T01:09:02.826Z,47.96
2022-08-07T01:10:11.243Z,47.70
2022-08-07T01:12:09.144Z,47.53
2022-08-07T01:12:54.042Z,47.65
2022-08-07T01:13:58.711Z,48.01
2022-08-07T01:15:01.197Z,47.80
2022-08-07T01:16:05.908Z,47.70
2022-08-07T01:17:09.070Z,47.72
2022-08-07T01:18:11.123Z,47.84
2022-08-07T01:19:21.422Z,47.44
2022-08-07T01:20:33.658Z,47.88
2022-08-07T01:21:45.725Z,47.88
2022-08-07T01:23:07.416Z,48.06
2022-08-07T01:24:11.224Z,48.33
2022-08-07T01:25:55.098Z,48.40
2022-08-07T01:26:34.976Z,48.79
2022-08-07T01:27:37.369Z,48.96
2022-08-07T01:28:46.293Z,48.62
2022-08-07T01:29:54.696Z,48.96
2022-08-07T01:30:58.723Z,48.89
2022-08-07T01:32:01.340Z,48.77
2022-08-07T01:33:07.403Z,48.71
2022-08-07T01:34:11.674Z,48.73
2022-08-07T01:35:17.280Z,49.01
2022-08-07T01:36:21.184Z,48.97
2022-08-07T01:37:37.416Z,48.84
2022-08-07T01:38:39.987Z,49.06
2022-08-07T01:39:52.063Z,48.76
2022-08-07T01:41:04.621Z,48.87
2022-08-07T01:42:39.658Z,48.96
2022-08-07T01:43:34.669Z,48.91
2022-08-07T01:44:41.914Z,48.67
2022-08-07T01:45:46.618Z,48.91
2022-08-07T01:46:53.243Z,49.23
2022-08-07T01:48:19.126Z,49.09
2022-08-07T01:49:17.646Z,48.82
2022-08-07T01:50:29.031Z,49.20
2022-08-07T01:52:02.524Z,49.56
2022-08-07T01:52:57.692Z,49.65
2022-08-07T01:54:09.534Z,49.28
2022-08-07T01:55:22.334Z,49.50
2022-08-07T01:56:32.794Z,49.55
2022-08-07T01:58:05.471Z,49.54
2022-08-07T01:59:07.611Z,49.46
2022-08-07T02:00:17.413Z,49.86
2022-08-07T02:01:59.179Z,49.69
2022-08-07T02:03:18.877Z,49.54
2022-08-07T02:04:26.650Z,49.45
2022-08-07T02:05:47.627Z,49.72
2022-08-07T02:06:54.268Z,49.82
2022-08-07T02:08:01.051Z,49.91
2022-08-07T02:09:51.713Z,49.93
2022-08-07T02:10:42.294Z,49.80
2022-08-07T02:12:03.798Z,50.05
2022-08-07T02:13:10.749Z,50.00
2022-08-07T02:14:35.730Z,50.20
2022-08-07T02:15:40.198Z,50.46
2022-08-07T02:16:42.541Z,50.76
2022-08-07T02:17:49.814Z,51.00
2022-08-07T02:18:54.485Z,50.94
2022-08-07T02:20:05.372Z,50.90
2022-08-07T02:21:13.755Z,51.28
2022-08-07T02:22:19.165Z,51.07
2022-08-07T02:23:23.969Z,51.03
2022-08-07T02:24:29.659Z,51.26
2022-08-07T02:26:30.436Z,51.49
2022-08-07T02:27:00.113Z,51.11
2022-08-07T02:28:04.742Z,51.56
2022-08-07T02:29:13.679Z,51.65
2022-08-07T02:30:17.707Z,51.69
2022-08-07T02:31:29.120Z,51.53
2022-08-07T02:32:33.639Z,51.83
2022-08-07T02:34:01.464Z,51.56
2022-08-07T02:35:01.137Z,51.43
2022-08-07T02:36:29.723Z,51.52
2022-08-07T02:37:34.077Z,51.44
2022-08-07T02:38:40.351Z,51.71
2022-08-07T02:40:12.139Z,51.73
2022-08-07T02:41:21.704Z,52.09
2022-08-07T02:42:25.633Z,52.14
2022-08-07T02:43:28.331Z,52.22
2022-08-07T02:44:34.709Z,52.16
2022-08-07T02:45:59.378Z,52.62
2022-08-07T02:47:06.704Z,52.55
2022-08-07T02:48:10.070Z,52.21
2022-08-07T02:49:12.164Z,52.15
2022-08-07T02:50:34.311Z,52.46
2022-08-07T02:51:49.753Z,52.65
2022-08-07T02:53:12.579Z,52.52
2022-08-07T02:54:16.608Z,52.58
2022-08-07T02:56:02.469Z,53.09
2022-08-07T02:56:54.742Z,52.77
2022-08-07T02:58:02.307Z,52.79
2022-08-07T02:59:09.141Z,52.39
2022-08-07T03:00:13.862Z,52.27
2022-08-07T03:01:35.527Z,52.34
2022-08-07T03:02:54.400Z,51.96
2022-08-07T03:03:58.455Z,52.42
2022-08-07T03:05:06.809Z,52.41
2022-08-07T03:06:16.547Z,52.32
2022-08-07T03:07:21.519Z,52.56
2022-08-07T03:08:42.595Z,52.65
2022-08-07T03:09:48.251Z,52.41
2022-08-07T03:10:52.808Z,52.41
2022-08-07T03:12:04.731Z,52.53
2022-08-07T03:13:09.617Z,52.80
2022-08-07T03:14:13.255Z,52.63
2022-08-07T03:15:14.988Z,52.72
2022-08-07T03:16:33.089Z,53.04
2022-08-07T03:17:52.694Z,53.02
2022-08-07T03:18:56.798Z,53.00
2022-08-07T03:19:58.729Z,52.62
2022-08-07T03:21:04.189Z,52.93
2022-08-07T03:22:06.542Z,53.08
2022-08-07T03:23:19.240Z,53.03
2022-08-07T03:24:27.526Z,53.39
2022-08-07T03:25:40.098Z,53.19
2022-08-07T03:26:58.404Z,53.50
2022-08-07T03:28:09.390Z,53.30
2022-08-07T03:29:25.031Z,53.36
2022-08-07T03:30:32.171Z,53.46
2022-08-07T03:31:56.466Z,53.43
2022-08-07T03:33:00.987Z,53.69
2022-08-07T03:34:07.682Z,53.73
2022-08-07T03:35:17.335Z,54.04
2022-08-07T03:36:25.822Z,53.86
2022-08-07T03:37:46.122Z,53.78
2022-08-07T03:39:07.408Z,54.16
2022-08-07T03:40:15.485Z,54.06
2022-08-07T03:41:18.414Z,54.29
2022-08-07T03:42:40.676Z,53.91
2022-08-07T03:43:56.898Z,54.02
2022-08-07T03:45:01.489Z,54.38
2022-08-07T03:46:10.353Z,54.47
2022-08-07T03:47:22.719Z,54.69
2022-08-07T03:48:26.228Z,54.71
2022-08-07T03:49:32.390Z,54.70
2022-08-07T03:50:34.977Z,54.72
2022-08-07T03:51:47.655Z,54.62
2022-08-07T03:53:00.995Z,54.93
2022-08-07T03:54:33.732Z,54.80
2022-08-07T03:55:57.617Z,54.77
2022-08-07T03:57:03.395Z,54.84
2022-08-07T03:58:32.979Z,55.09
2022-08-07T03:59:27.727Z,54.70
2022-08-07T04:00:35.497Z,55.11
2022-08-07T04:01:43.176Z,54.78
2022-08-07T04:02:47.711Z,54.89
2022-08-07T04:04:04.907Z,55.42
2022-08-07T04:05:09.401Z,55.42
2022-08-07T04:06:38.449Z,55.50
2022-08-07T04:07:41.749Z,55.21
2022-08-07T04:08:45.834Z,55.69
2022-08-07T04:09:50.280Z,55.63
2022-08-07T04:12:23.436Z,55.22
2022-08-07T04:12:27.890Z,55.38
2022-08-07T04:14:10.006Z,55.52
2022-08-07T04:14:56.961Z,55.29
2022-08-07T04:15:58.753Z,55.39
2022-08-07T04:17:03.221Z,55.26
2022-08-07T04:18:57.025Z,55.29
2022-08-07T04:19:50.868Z,55.30
2022-08-07T04:20:54.425Z,55.36
2022-08-07T04:22:05.364Z,55.08
2022-08-07T04:23:19.219Z,55.75
2022-08-07T04:24:30.736Z,55.92
2022-08-07T04:25:40.822Z,56.59
2022-08-07T04:26:44.482Z,57.04
2022-08-07T04:27:59.270Z,56.32
2022-08-07T04:29:04.041Z,56.62
2022-08-07T04:30:11.728Z,56.60
2022-08-07T04:31:38.751Z,56.49
2022-08-07T04:32:58.315Z,56.45
2022-08-07T04:34:02.807Z,56.56
2022-08-07T04:35:07.064Z,56.36
2022-08-07T04:36:09.504Z,56.46
2022-08-07T04:37:15.267Z,56.50
2022-08-07T04:38:22.956Z,56.34
2022-08-07T04:39:26.242Z,56.11
2022-08-07T04:40:29.960Z,56.04
2022-08-07T04:41:36.846Z,56.35
2022-08-07T04:42:38.831Z,55.84
2022-08-07T04:44:10.532Z,55.51
2022-08-07T04:45:12.994Z,55.70
2022-08-07T04:47:07.758Z,55.34
2022-08-07T04:48:23.924Z,55.06
2022-08-07T04:49:38.786Z,55.05
2022-08-07T04:50:53.100Z,55.14
2022-08-07T04:52:07.903Z,55.33
2022-08-07T04:54:01.879Z,54.69
2022-08-07T04:58:12.788Z,53.64
2022-08-07T04:58:14.030Z,52.03
2022-08-07T05:00:30.945Z,48.06
2022-08-07T05:02:20.464Z,46.01
2022-08-07T05:04:07.985Z,45.21
2022-08-07T05:05:53.155Z,43.62
2022-08-07T05:06:53.093Z,41.58
2022-08-07T05:08:59.287Z,39.85
2022-08-07T05:09:54.087Z,37.49
2022-08-07T05:11:05.394Z,37.11
2022-08-07T05:12:15.629Z,36.47
2022-08-07T05:14:56.174Z,35.98
2022-08-07T05:15:04.410Z,36.39
2022-08-07T05:16:14.234Z,35.99
2022-08-07T05:17:52.156Z,36.41
2022-08-07T05:19:10.111Z,35.70
2022-08-07T05:20:16.028Z,35.32
2022-08-07T05:21:25.274Z,34.99
2022-08-07T05:22:45.188Z,35.74
2022-08-07T05:23:57.132Z,36.78
2022-08-07T05:25:00.450Z,37.17
2022-08-07T05:26:11.700Z,37.66
2022-08-07T05:28:02.760Z,38.17
2022-08-07T05:28:48.730Z,38.81
2022-08-07T05:29:56.402Z,38.69
2022-08-07T05:30:59.725Z,38.53
2022-08-07T05:32:04.251Z,38.53
2022-08-07T05:33:09.019Z,37.71
2022-08-07T05:34:15.693Z,36.61
2022-08-07T05:35:23.806Z,36.06
2022-08-07T05:36:38.993Z,34.15
2022-08-07T05:37:46.250Z,32.48
2022-08-07T05:40:13.942Z,31.61
2022-08-07T05:40:36.633Z,30.00
2022-08-07T05:42:00.540Z,28.68
2022-08-07T05:43:05.157Z,28.65
2022-08-07T05:44:13.426Z,30.04
2022-08-07T05:45:45.990Z,31.00
2022-08-07T05:46:44.117Z,31.83
2022-08-07T05:48:01.406Z,32.46
2022-08-07T05:49:12.441Z,33.43
2022-08-07T05:50:17.024Z,33.81
2022-08-07T05:51:19.528Z,34.61
2022-08-07T05:52:32.349Z,35.62
2022-08-07T05:54:09.648Z,37.20
2022-08-07T05:54:59.262Z,38.16
2022-08-07T05:56:12.365Z,38.48
2022-08-07T05:57:18.014Z,39.25
2022-08-07T05:58:36.208Z,40.05
2022-08-07T05:59:57.311Z,40.55
2022-08-07T06:01:05.069Z,41.59
2022-08-07T06:02:08.346Z,42.42
2022-08-07T06:03:11.831Z,43.07
2022-08-07T06:04:19.545Z,43.67
2022-08-07T06:05:25.862Z,44.20
2022-08-07T06:06:29.843Z,44.32
2022-08-07T06:08:14.726Z,44.39
2022-08-07T06:08:59.733Z,44.40
2022-08-07T06:10:05.778Z,43.84
2022-08-07T06:11:08.885Z,42.45
2022-08-07T06:12:12.431Z,41.07
2022-08-07T06:13:17.554Z,38.98
2022-08-07T06:14:20.964Z,37.90
2022-08-07T06:15:39.425Z,37.31
2022-08-07T06:16:49.988Z,36.63
2022-08-07T06:17:55.362Z,36.73
2022-08-07T06:19:01.005Z,36.47
2022-08-07T06:20:04.000Z,36.67
2022-08-07T06:22:14.979Z,36.23
2022-08-07T06:22:38.464Z,35.20
2022-08-07T06:24:45.794Z,35.34
2022-08-07T06:25:22.840Z,35.17
2022-08-07T06:26:27.262Z,34.88
2022-08-07T06:27:44.052Z,33.66
2022-08-07T06:28:54.339Z,32.49
2022-08-07T06:29:57.490Z,32.66
2022-08-07T06:31:00.084Z,32.93
2022-08-07T06:32:03.673Z,32.83
2022-08-07T06:33:09.731Z,32.94
2022-08-07T06:34:20.406Z,33.00
2022-08-07T06:35:23.094Z,32.07
2022-08-07T06:36:35.245Z,32.62
2022-08-07T06:37:43.922Z,31.63
2022-08-07T06:38:51.608Z,31.40
2022-08-07T06:40:17.188Z,31.26
2022-08-07T06:42:01.970Z,29.47
2022-08-07T06:43:21.644Z,28.37
2022-08-07T06:44:42.113Z,27.03
2022-08-07T06:45:44.344Z,26.87
2022-08-07T06:46:53.633Z,27.46
2022-08-07T06:48:08.268Z,27.40
2022-08-07T06:49:16.908Z,28.06
2022-08-07T06:50:19.052Z,28.33
2022-08-07T06:51:31.320Z,27.20
2022-08-07T06:52:41.817Z,26.95
2022-08-07T06:54:12.096Z,27.52
2022-08-07T06:55:34.051Z,27.41
2022-08-07T06:56:49.343Z,27.63
2022-08-07T06:58:01.517Z,27.58
2022-08-07T07:00:13.372Z,27.66
2022-08-07T07:00:38.762Z,27.75
2022-08-07T07:01:50.840Z,26.88
2022-08-07T07:02:58.202Z,25.54
2022-08-07T07:04:32.996Z,26.46
2022-08-07T07:06:05.664Z,26.69
2022-08-07T07:07:00.334Z,26.23
2022-08-07T07:08:07.397Z,26.21
2022-08-07T07:09:18.185Z,26.33
2022-08-07T07:10:31.496Z,25.40
2022-08-07T07:12:09.096Z,24.99
2022-08-07T07:12:59.938Z,24.69
2022-08-07T07:14:05.156Z,23.94
2022-08-07T07:15:32.421Z,23.78
2022-08-07T07:16:49.982Z,24.57
2022-08-07T07:18:07.320Z,24.51
2022-08-07T07:19:54.713Z,25.05
2022-08-07T07:20:44.014Z,24.42
2022-08-07T07:22:04.594Z,25.14
2022-08-07T07:24:11.241Z,25.16
2022-08-07T07:24:32.950Z,24.77
2022-08-07T07:26:35.673Z,25.08
2022-08-07T07:27:03.954Z,24.19
2022-08-07T07:28:48.513Z,23.92
2022-08-07T07:30:09.829Z,23.75
2022-08-07T07:31:44.310Z,24.20
2022-08-07T07:32:47.347Z,25.64
2022-08-07T07:33:57.081Z,26.15
2022-08-07T07:35:01.977Z,25.88
2022-08-07T07:36:13.251Z,25.49
2022-08-07T07:37:44.447Z,26.02
2022-08-07T07:38:40.432Z,27.34
2022-08-07T07:39:54.793Z,28.98
2022-08-07T07:41:02.584Z,30.35
2022-08-07T07:42:13.998Z,32.08
2022-08-07T07:43:27.552Z,32.81
2022-08-07T07:44:49.689Z,34.07
2022-08-07T07:46:36.752Z,35.05
2022-08-07T07:47:22.741Z,35.86
2022-08-07T07:48:35.201Z,36.59
2022-08-07T07:50:33.400Z,37.59
2022-08-07T07:51:02.644Z,38.84
2022-08-07T07:52:11.050Z,39.60
2022-08-07T07:53:23.066Z,39.89
2022-08-07T07:54:27.961Z,39.61
2022-08-07T07:55:37.304Z,40.39
2022-08-07T07:56:41.244Z,40.48
2022-08-07T07:57:53.331Z,40.82
2022-08-07T07:58:58.519Z,41.49
2022-08-07T08:00:02.537Z,41.86
2022-08-07T08:02:02.512Z,42.18
2022-08-07T08:02:39.745Z,41.95
2022-08-07T08:04:10.121Z,42.13
2022-08-07T08:05:16.283Z,42.09
2022-08-07T08:06:19.550Z,42.39
2022-08-07T08:07:24.261Z,41.79
2022-08-07T08:08:39.460Z,41.12
2022-08-07T08:09:52.241Z,41.34
2022-08-07T08:11:16.569Z,41.31
2022-08-07T08:12:43.171Z,40.85
2022-08-07T08:13:53.695Z,40.81
2022-08-07T08:14:57.298Z,40.58
2022-08-07T08:16:02.254Z,40.14
2022-08-07T08:17:55.554Z,39.74
2022-08-07T08:18:29.817Z,38.35
2022-08-07T08:20:17.116Z,37.85
2022-08-07T08:20:55.760Z,37.62
2022-08-07T08:22:03.147Z,38.09
2022-08-07T08:23:09.309Z,38.10
2022-08-07T08:24:19.721Z,38.08
2022-08-07T08:25:42.752Z,38.50
2022-08-07T08:26:54.829Z,37.89
2022-08-07T08:28:03.722Z,37.23
2022-08-07T08:29:08.309Z,37.30
2022-08-07T08:30:14.335Z,36.39
2022-08-07T08:31:30.260Z,37.30
2022-08-07T08:32:58.712Z,36.70
2022-08-07T08:34:04.006Z,36.86
2022-08-07T08:35:09.620Z,36.38
2022-08-07T08:36:11.915Z,36.36
2022-08-07T08:37:59.358Z,35.94
2022-08-07T08:38:41.913Z,33.36
2022-08-07T08:39:54.650Z,34.46
2022-08-07T08:41:13.157Z,33.34
2022-08-07T08:42:40.436Z,33.73
2022-08-07T08:44:02.684Z,33.70
2022-08-07T08:45:41.528Z,32.78
2022-08-07T08:47:25.783Z,33.55
2022-08-07T08:48:39.663Z,33.12
2022-08-07T08:50:05.020Z,33.05
2022-08-07T08:51:49.658Z,33.17
2022-08-07T08:53:06.231Z,33.25
2022-08-07T08:54:19.741Z,33.64
2022-08-07T08:55:54.914Z,33.03
2022-08-07T08:56:53.134Z,32.71
2022-08-07T08:58:02.805Z,32.76
2022-08-07T08:59:20.399Z,32.64
2022-08-07T09:00:30.145Z,32.88
2022-08-07T09:02:08.999Z,32.65
2022-08-07T09:03:47.341Z,32.82
2022-08-07T09:04:57.697Z,33.00
2022-08-07T09:06:17.873Z,32.92
2022-08-07T09:07:34.019Z,33.73
2022-08-07T09:09:00.180Z,34.15
2022-08-07T09:10:15.752Z,34.12
2022-08-07T09:11:50.485Z,33.86
2022-08-07T09:13:19.918Z,33.57
2022-08-07T09:16:21.902Z,33.79
2022-08-07T09:16:56.157Z,33.72
2022-08-07T09:18:16.817Z,33.23
2022-08-07T09:19:51.418Z,32.58
2022-08-07T09:21:13.952Z,32.26
2022-08-07T09:24:31.523Z,32.67
2022-08-07T09:24:54.533Z,32.08
2022-08-07T09:26:06.538Z,31.38
2022-08-07T09:27:24.381Z,31.67
2022-08-07T09:30:05.236Z,31.54
2022-08-07T09:30:09.154Z,31.86
2022-08-07T09:31:25.817Z,32.36
2022-08-07T09:33:05.551Z,32.73
2022-08-07T09:34:26.197Z,33.05
2022-08-07T09:36:03.472Z,32.08
2022-08-07T09:37:15.271Z,32.12
2022-08-07T09:38:31.379Z,32.23
2022-08-07T09:39:57.957Z,32.31
2022-08-07T09:41:23.681Z,31.97
2022-08-07T09:43:08.372Z,31.82
2022-08-07T09:47:52.478Z,32.29
2022-08-07T09:48:50.205Z,31.01
2022-08-07T09:50:43.678Z,30.47
2022-08-07T09:52:34.167Z,29.87
2022-08-07T09:53:41.215Z,30.34
2022-08-07T09:55:17.246Z,29.84
2022-08-07T09:56:43.660Z,30.80
2022-08-07T09:58:16.932Z,31.10
2022-08-07T10:00:00.681Z,30.66
2022-08-07T10:01:52.271Z,31.18
2022-08-07T10:04:05.432Z,32.41
2022-08-07T10:05:13.860Z,32.18
2022-08-07T10:06:37.649Z,31.76
2022-08-07T10:08:16.235Z,31.55
2022-08-07T10:10:02.625Z,30.23
2022-08-07T10:12:01.886Z,30.19
2022-08-07T10:13:54.844Z,30.46
2022-08-07T10:15:30.282Z,30.01
2022-08-07T10:17:20.961Z,28.42
2022-08-07T10:18:41.069Z,28.41
2022-08-07T10:20:13.314Z,27.20
2022-08-07T10:22:14.198Z,27.51
2022-08-07T10:24:06.045Z,27.97
2022-08-07T10:24:51.297Z,27.43
2022-08-07T10:26:03.152Z,26.94
2022-08-07T10:27:16.590Z,26.88
2022-08-07T10:28:30.334Z,27.11
2022-08-07T10:29:43.418Z,27.09
2022-08-07T10:31:31.447Z,26.97
2022-08-07T10:33:30.801Z,27.01
2022-08-07T10:35:56.059Z,27.52
2022-08-07T10:37:48.119Z,27.34
2022-08-07T10:39:05.619Z,27.48
2022-08-07T10:40:34.034Z,27.14
2022-08-07T10:41:53.271Z,27.59
2022-08-07T10:43:14.055Z,27.55
2022-08-07T10:44:38.379Z,28.12
2022-08-07T10:45:58.448Z,27.67
2022-08-07T10:47:14.246Z,26.87
2022-08-07T10:48:34.993Z,26.78
2022-08-07T10:49:58.847Z,26.90
2022-08-07T10:51:07.493Z,26.74
2022-08-07T10:52:51.860Z,26.69
2022-08-07T10:54:09.474Z,26.95
2022-08-07T10:55:38.148Z,26.84
2022-08-07T10:56:53.019Z,26.87
2022-08-07T10:58:15.382Z,26.53
2022-08-07T10:59:47.278Z,26.67
2022-08-07T11:01:16.198Z,26.41
2022-08-07T11:02:53.910Z,25.88
2022-08-07T11:04:23.026Z,26.11
2022-08-07T11:06:02.715Z,26.23
2022-08-07T11:07:58.289Z,26.24
2022-08-07T11:08:54.564Z,26.00
2022-08-07T11:10:09.504Z,26.10
2022-08-07T11:11:25.334Z,26.34
2022-08-07T11:12:43.418Z,25.89
2022-08-07T11:14:44.576Z,25.50
2022-08-07T11:15:31.586Z,25.57
2022-08-07T11:16:38.858Z,24.90
2022-08-07T11:17:53.749Z,25.35
2022-08-07T11:19:21.571Z,25.51
2022-08-07T11:20:41.781Z,25.34
2022-08-07T11:22:01.679Z,24.99
2022-08-07T11:23:20.697Z,25.66
2022-08-07T11:24:52.667Z,24.65
2022-08-07T11:26:32.311Z,24.91
2022-08-07T11:28:04.063Z,25.07
2022-08-07T11:29:13.137Z,25.03
2022-08-07T11:30:45.415Z,24.49
2022-08-07T11:31:55.688Z,24.05
2022-08-07T11:33:58.370Z,24.30
2022-08-07T11:34:53.563Z,23.83
2022-08-07T11:36:30.847Z,24.65
2022-08-07T11:37:58.066Z,24.17
2022-08-07T11:39:39.842Z,24.94
2022-08-07T11:41:02.224Z,23.85
2022-08-07T11:42:38.778Z,24.12
2022-08-07T11:44:12.037Z,24.11
2022-08-07T11:45:35.978Z,24.32
2022-08-07T11:46:58.768Z,23.47
2022-08-07T11:48:29.214Z,23.87
2022-08-07T11:50:30.960Z,24.01
2022-08-07T11:51:47.733Z,23.73
2022-08-07T11:53:14.450Z,23.63
2022-08-07T11:54:54.973Z,23.60
2022-08-07T11:56:27.006Z,24.26
2022-08-07T11:57:58.053Z,23.79
2022-08-07T12:00:09.948Z,23.71
2022-08-07T12:01:02.120Z,23.57
2022-08-07T12:02:10.216Z,23.35
2022-08-07T12:03:46.879Z,23.50
2022-08-07T12:05:47.349Z,23.15
2022-08-07T12:07:20.215Z,23.54
2022-08-07T12:08:37.921Z,23.79
2022-08-07T12:10:08.365Z,23.39
2022-08-07T12:11:21.202Z,23.31
2022-08-07T12:12:30.829Z,23.67
2022-08-07T12:13:47.846Z,23.59
2022-08-07T12:15:01.486Z,23.45
2022-08-07T12:16:09.290Z,23.31
2022-08-07T12:17:19.744Z,23.64
2022-08-07T12:18:45.464Z,23.29
2022-08-07T12:20:02.602Z,23.78
2022-08-07T12:21:15.056Z,23.49
2022-08-07T12:22:58.345Z,23.33
2022-08-07T12:24:40.176Z,22.47
2022-08-07T12:26:05.722Z,22.42
2022-08-07T12:27:16.192Z,23.42
2022-08-07T12:28:31.215Z,23.36
2022-08-07T12:29:37.753Z,22.92
2022-08-07T12:30:46.870Z,23.44
2022-08-07T12:32:04.900Z,23.02
2022-08-07T12:33:23.415Z,23.46
2022-08-07T12:34:34.373Z,23.37
2022-08-07T12:35:37.044Z,23.98
2022-08-07T12:36:40.612Z,23.97
2022-08-07T12:38:11.630Z,23.66
2022-08-07T12:39:42.772Z,24.01
2022-08-07T12:40:47.645Z,23.67
2022-08-07T12:41:53.468Z,22.86
2022-08-07T12:42:59.159Z,23.22
2022-08-07T12:44:06.985Z,22.95
2022-08-07T12:45:18.059Z,22.55
2022-08-07T12:46:26.406Z,22.71
2022-08-07T12:47:55.190Z,22.93
2022-08-07T12:49:40.171Z,22.80
2022-08-07T12:51:17.072Z,22.92
2022-08-07T12:52:33.876Z,22.51
2022-08-07T12:54:24.089Z,23.00
2022-08-07T12:55:16.617Z,23.32
2022-08-07T12:56:29.041Z,23.12
2022-08-07T12:58:01.118Z,23.46
2022-08-07T12:58:59.607Z,23.06
2022-08-07T13:00:03.403Z,23.31
2022-08-07T13:01:32.141Z,23.16
2022-08-07T13:02:47.229Z,23.07
2022-08-07T13:04:06.345Z,22.30
2022-08-07T13:06:04.820Z,22.06
2022-08-07T13:08:13.824Z,22.93
2022-08-07T13:10:17.771Z,22.36
2022-08-07T13:11:08.605Z,21.80
2022-08-07T13:12:28.862Z,21.59
2022-08-07T13:14:03.195Z,21.94
2022-08-07T13:15:29.846Z,21.35
2022-08-07T13:17:06.713Z,21.50
2022-08-07T13:18:49.125Z,21.45
2022-08-07T13:20:00.181Z,21.72
2022-08-07T13:21:11.065Z,21.43
2022-08-07T13:22:27.473Z,21.80
2022-08-07T13:24:01.163Z,22.45
2022-08-07T13:25:03.747Z,21.50
2022-08-07T13:26:26.676Z,22.10
2022-08-07T13:28:12.552Z,21.06
2022-08-07T13:29:11.687Z,21.62
2022-08-07T13:30:18.875Z,22.00
2022-08-07T13:31:32.120Z,22.16
2022-08-07T13:32:58.653Z,21.13
2022-08-07T13:34:34.221Z,21.80
2022-08-07T13:36:17.397Z,22.26
2022-08-07T13:37:37.883Z,21.71
2022-08-07T13:38:49.467Z,22.00
2022-08-07T13:40:36.238Z,22.14
2022-08-07T13:41:54.692Z,22.10
2022-08-07T13:43:01.037Z,22.14
2022-08-07T13:44:10.239Z,21.70
2022-08-07T13:46:06.769Z,22.02
2022-08-07T13:46:48.797Z,21.79
2022-08-07T13:48:07.758Z,21.73
2022-08-07T13:50:34.378Z,21.19
2022-08-07T13:50:55.595Z,21.42
2022-08-07T13:52:22.926Z,21.29
2022-08-07T13:53:26.325Z,21.65
2022-08-07T13:54:39.805Z,20.91
2022-08-07T13:55:54.364Z,20.21
2022-08-07T13:56:59.735Z,20.52
2022-08-07T13:58:08.086Z,20.42
2022-08-07T13:59:24.579Z,20.41
2022-08-07T14:00:50.609Z,20.82
2022-08-07T14:02:04.701Z,21.21
2022-08-07T14:03:08.760Z,21.50
2022-08-07T14:04:16.841Z,20.89
2022-08-07T14:05:24.078Z,20.17
2022-08-07T14:06:36.911Z,20.39
2022-08-07T14:08:00.448Z,20.71
2022-08-07T14:09:05.162Z,20.31
2022-08-07T14:10:21.727Z,20.09
2022-08-07T14:11:53.834Z,20.68
2022-08-07T14:13:02.555Z,20.82
2022-08-07T14:14:11.351Z,20.54
2022-08-07T14:15:36.954Z,20.84
2022-08-07T14:16:41.758Z,21.21
2022-08-07T14:18:24.041Z,21.43
2022-08-07T14:20:42.315Z,21.27
2022-08-07T14:21:11.651Z,20.97
2022-08-07T14:22:34.785Z,20.93
2022-08-07T14:24:01.709Z,20.68
2022-08-07T14:25:11.743Z,20.62
2022-08-07T14:26:28.132Z,20.28
2022-08-07T14:28:12.143Z,20.13
2022-08-07T14:30:02.829Z,19.72
2022-08-07T14:30:33.179Z,19.79
2022-08-07T14:31:42.394Z,20.27
2022-08-07T14:33:11.142Z,20.65
2022-08-07T14:34:20.155Z,20.03
2022-08-07T14:35:43.279Z,20.46
2022-08-07T14:36:55.973Z,20.43
2022-08-07T14:38:05.835Z,19.80
2022-08-07T14:39:09.362Z,19.50
2022-08-07T14:40:26.661Z,19.86
2022-08-07T14:41:34.155Z,20.16
2022-08-07T14:44:22.779Z,20.06
2022-08-07T14:45:46.575Z,20.38
2022-08-07T14:48:20.905Z,20.34
2022-08-07T14:49:58.480Z,20.61
2022-08-07T14:50:52.213Z,20.52
2022-08-07T14:52:04.315Z,20.31
2022-08-07T14:53:09.675Z,20.54
2022-08-07T14:54:31.096Z,20.39
2022-08-07T14:55:38.301Z,20.10
2022-08-07T14:57:00.277Z,20.53
2022-08-07T14:58:05.859Z,20.39
2022-08-07T14:59:13.487Z,20.13
2022-08-07T15:00:34.455Z,20.04
2022-08-07T15:01:42.364Z,20.65
2022-08-07T15:02:46.836Z,20.47
2022-08-07T15:04:06.222Z,20.72
2022-08-07T15:05:19.618Z,20.45
2022-08-07T15:06:25.475Z,20.23
2022-08-07T15:08:53.129Z,20.39
2022-08-07T15:10:01.984Z,20.36
2022-08-07T15:11:14.979Z,20.87
2022-08-07T15:12:25.965Z,20.75
2022-08-07T15:13:56.678Z,20.22
2022-08-07T15:15:17.434Z,20.06
2022-08-07T15:16:31.239Z,20.17
2022-08-07T15:17:55.193Z,19.98
2022-08-07T15:19:00.705Z,19.84
2022-08-07T15:20:33.107Z,20.24
2022-08-07T15:21:58.496Z,20.17
2022-08-07T15:22:57.978Z,20.16
2022-08-07T15:25:12.691Z,20.43
2022-08-07T15:25:36.434Z,20.02
2022-08-07T15:26:44.376Z,20.07
2022-08-07T15:28:30.921Z,20.78
2022-08-07T15:30:04.834Z,20.03
2022-08-07T15:31:04.619Z,19.87
2022-08-07T15:32:04.995Z,19.63
2022-08-07T15:33:19.210Z,19.91
2022-08-07T15:34:22.216Z,20.24
2022-08-07T15:37:03.964Z,19.82
2022-08-07T15:38:29.726Z,19.98
2022-08-07T15:39:57.507Z,20.40
2022-08-07T15:41:24.164Z,20.70
2022-08-07T15:44:03.503Z,20.88
2022-08-07T15:45:09.439Z,20.82
2022-08-07T15:46:37.736Z,20.97
2022-08-07T15:48:00.807Z,21.58
2022-08-07T15:50:37.866Z,21.43
2022-08-07T15:53:10.987Z,21.63
2022-08-07T15:54:14.569Z,21.70
2022-08-07T15:55:20.277Z,22.42
2022-08-07T15:56:33.313Z,21.86
2022-08-07T15:57:39.883Z,22.12
2022-08-07T15:58:55.542Z,21.57
2022-08-07T15:59:59.290Z,21.92
2022-08-07T16:01:04.149Z,21.68
2022-08-07T16:02:08.544Z,21.81
2022-08-07T16:03:20.932Z,21.65
2022-08-07T16:04:42.301Z,21.10
2022-08-07T16:05:51.045Z,21.52
2022-08-07T16:06:55.776Z,21.52
2022-08-07T16:08:32.669Z,21.86
2022-08-07T16:09:48.530Z,22.15
2022-08-07T16:11:02.736Z,21.53
2022-08-07T16:12:38.069Z,22.39
2022-08-07T16:13:58.816Z,22.55
2022-08-07T16:15:55.483Z,22.81
2022-08-07T16:17:15.059Z,23.08
2022-08-07T16:18:49.506Z,23.22
2022-08-07T16:20:02.846Z,23.34
2022-08-07T16:21:57.009Z,23.59
2022-08-07T16:23:05.085Z,23.22
2022-08-07T16:24:33.677Z,22.94
2022-08-07T16:25:56.653Z,23.22
2022-08-07T16:27:17.980Z,23.37
2022-08-07T16:30:08.899Z,23.43
2022-08-07T16:30:11.592Z,23.29
2022-08-07T16:31:50.410Z,23.42
2022-08-07T16:34:01.685Z,23.72
2022-08-07T16:34:38.477Z,23.74
2022-08-07T16:36:19.792Z,23.80
2022-08-07T16:38:06.254Z,23.45
2022-08-07T16:39:40.216Z,23.74
2022-08-07T16:41:27.495Z,23.85
2022-08-07T16:43:03.920Z,23.35